Nearby METAR Reports

 

KHIF - Hill Afb/Ogden, Utah, USA
Distance from station: ENE 6mi, 9km
Updated: Sat, 19-Jun-2021 10:58am MDT
Clear
Clear
 Wind from S
Wind: S 13 mph , 20 km/h
Temperature: 90°F , 32°C
Dew Point: 43°F , 6°C
Humidity: 20%
Barometer: 29.97 inHg , 1014.9 hPa
Clouds: Clear
Visibility: 10 miles , 16 km
2021/06/19 16:58 KHIF 191658Z AUTO 19011KT 10SM CLR 32/06 A2997 RMK AO2 SLP075 T03170060
KOGD - Ogden, Utah, USA
Distance from station: NNE 9mi, 14km
Updated: Sat, 19-Jun-2021 10:53am MDT
Clear
Clear
 Wind from WSW
Wind: WSW 7 mph , 11 km/h
Temperature: 91°F , 33°C
Dew Point: 43°F , 6°C
Humidity: 18%
Barometer: 29.94 inHg , 1013.9 hPa
Clouds: Clear
Visibility: 10 miles , 16 km
2021/06/19 16:53 KOGD 191653Z 24006KT 10SM CLR 33/06 A2994 RMK AO2 SLP064 T03330061 $
 
KSLC - Salt Lake City, Utah, USA
Distance from station: SSE 21mi, 34km
Updated: Sat, 19-Jun-2021 10:54am MDT
Partly cloudy
Partly cloudy
 Wind from varies
Wind: varies 5 mph , 7 km/h
Temperature: 91°F , 33°C
Dew Point: 41°F , 5°C
Humidity: 17%
Barometer: 29.94 inHg , 1013.9 hPa
Clouds: Partly cloudy
Visibility: 10 miles , 16 km
Cloud details: Few Clouds 15000 ft
Partly cloudy 19000 ft
2021/06/19 16:54 KSLC 191654Z VRB04KT 10SM FEW150 SCT190 33/05 A2994 RMK AO2 SLP065 ACSL DSNT S-SW T03330050
KLGU - Logan, Utah, USA
Distance from station: NNE 50mi, 80km
Updated: Sat, 19-Jun-2021 10:51am MDT
Clear
Clear
 Wind from calm
Wind: Calm
Temperature: 82°F , 28°C
Dew Point: 45°F , 7°C
Humidity: 26%
Barometer: 29.96 inHg , 1014.6 hPa
Clouds: Clear
Visibility: 10 miles , 16 km
2021/06/19 16:51 KLGU 191651Z AUTO 00000KT 10SM CLR 28/07 A2996 RMK AO2 SLP080 T02780072
 
K36U - Heber/Russ Mcdon, Utah, USA
Distance from station: SE 53mi, 85km
Updated: Wed, 11-Oct-2017 6:50pm MDT
NOT Current
Clear
Clear
 Wind from SSW
Wind: SSW 10 mph , 17 km/h, Gust: 18 mph , 30 km/h
Temperature: 63°F , 17°C
Dew Point: 16°F , -9°C
Humidity: 16%
Barometer: 29.87 inHg , 1011.5 hPa
Clouds: Clear
Visibility: 10 miles , 16 km
2017/10/12 00:50 K36U 120050Z AUTO 21009G16KT 10SM CLR 17/M09 A2987 RMK AO2
KEVW - Evanston, Wyoming, USA
Distance from station: ENE 55mi, 89km
Updated: Sat, 19-Jun-2021 10:53am MDT
Clear
Clear
 Wind from WSW
Wind: WSW 16 mph , 26 km/h, Gust: 25 mph , 41 km/h
Temperature: 82°F , 28°C
Dew Point: 34°F , 1°C
Humidity: 17%
Barometer: 30.16 inHg , 1021.3 hPa
Clouds: Clear
Visibility: 10 miles , 16 km
2021/06/19 16:53 KEVW 191653Z AUTO 25014G22KT 10SM CLR 28/01 A3016 RMK AO2 SLP088 T02780011 $
 
KPVU - Provo Muni, Utah, USA
Distance from station: SSE 62mi, 100km
Updated: Sat, 19-Jun-2021 10:56am MDT
Partly cloudy
Partly cloudy
 Wind from varies
Wind: varies 5 mph , 7 km/h
Temperature: 84°F , 29°C
Dew Point: 43°F , 6°C
Humidity: 23%
Barometer: 29.99 inHg , 1015.6 hPa
Clouds: Partly cloudy
Visibility: 10 miles , 16 km
Cloud details: Partly cloudy 10000 ft
Partly cloudy 20000 ft
2021/06/19 16:56 KPVU 191656Z VRB04KT 10SM SCT100 SCT200 29/06 A2999 RMK AO2 SLP083 T02890061
KDPG - Dugway Prvg Grou, Utah, USA
Distance from station: SW 75mi, 121km
Updated: Thu, 17-Jun-2021 4:00pm MDT
NOT Current
Mostly cloudy
Mostly cloudy
 Wind from NNW
Wind: NNW 8 mph , 13 km/h
Temperature: 99°F , 37°C
Dew Point: 27°F , -3°C
Humidity: 8%
Barometer: 29.98 inHg , 1015.2 hPa
Clouds: Mostly cloudy
Visibility: 35 miles , 56 km
Cloud details: Few Clouds 17000 ft
Mostly cloudy 28000 ft
2021/06/17 22:00 KDPG 172200Z 34007KT 35SM FEW170 BKN280 37/M03 A2998 RMK SLP094 T03741026
 
KENV - Wendover (aut), Utah, USA
Distance from station: WSW 105mi, 169km
Updated: Sat, 19-Jun-2021 10:56am MDT
Clear
Clear
 Wind from ESE
Wind: ESE 8 mph , 13 km/h
Temperature: 90°F , 32°C
Dew Point: 37°F , 3°C
Humidity: 16%
Barometer: 29.96 inHg , 1014.6 hPa
Clouds: Clear
Visibility: 10 miles , 16 km
2021/06/19 16:56 KENV 191656Z AUTO 12007KT 10SM CLR 32/03 A2996 RMK AO2 SLP086 T03220028
KPUC - Price, Utah, USA
Distance from station: SE 123mi, 197km
Updated: Sat, 19-Jun-2021 10:53am MDT
Clear
Clear
 Wind from SSE
Wind: SSE 5 mph , 7 km/h
Temperature: 84°F , 29°C
Dew Point: 41°F , 5°C
Humidity: 22%
Barometer: 30.09 inHg , 1019 hPa
Clouds: Clear
Visibility: 10 miles , 16 km
2021/06/19 16:53 KPUC 191653Z AUTO 15004KT 10SM CLR 29/05 A3009 RMK AO2 SLP071 T02940050
 
KPIH - Pocatello, Idaho, USA
Distance from station: NNW 130mi, 208km
Updated: Sat, 19-Jun-2021 10:53am MDT
Clear
Clear
 Wind from W
Wind: W 10 mph , 17 km/h
Temperature: 81°F , 27°C
Dew Point: 46°F , 8°C
Humidity: 30%
Barometer: 29.99 inHg , 1015.6 hPa
Clouds: Clear
Visibility: 10 miles , 16 km
2021/06/19 16:53 KPIH 191653Z 28009KT 10SM CLR 27/08 A2999 RMK AO2 SLP098 T02720078
KBYI - Burley, Idaho, USA
Distance from station: NW 134mi, 216km
Updated: Sat, 19-Jun-2021 10:53am MDT
Clear
Clear
 Wind from W
Wind: W 9 mph , 15 km/h
Temperature: 77°F , 25°C
Dew Point: 46°F , 8°C
Humidity: 34%
Barometer: 29.98 inHg , 1015.2 hPa
Clouds: Clear
Visibility: 10 miles , 16 km
2021/06/19 16:53 KBYI 191653Z AUTO 26008KT 10SM CLR 25/08 A2998 RMK AO2 SLP102 T02500078 $
 
KVEL - Vernal, Utah, USA
Distance from station: ESE 140mi, 226km
Updated: Sat, 19-Jun-2021 10:53am MDT
Few Clouds
Few Clouds
 Wind from WSW
Wind: WSW 3 mph , 6 km/h
Temperature: 82°F , 28°C
Dew Point: 43°F , 6°C
Humidity: 25%
Barometer: 30.06 inHg , 1017.9 hPa
Clouds: Few Clouds
Visibility: 10 miles , 16 km
Cloud details: Few Clouds 11000 ft
2021/06/19 16:53 KVEL 191653Z AUTO 24003KT 10SM FEW110 28/06 A3006 RMK AO2 SLP095 T02780056
KBPI - Big Piney, Wyoming, USA
Distance from station: NE 145mi, 234km
Updated: Sat, 19-Jun-2021 10:53am MDT
Clear
Clear
 Wind from W
Wind: W 20 mph , 31 km/h, Gust: 24 mph , 39 km/h
Temperature: 81°F , 27°C
Dew Point: 30°F , -1°C
Humidity: 16%
Barometer: 30.12 inHg , 1020 hPa
Clouds: Clear
Visibility: 10 miles , 16 km
2021/06/19 16:53 KBPI 191653Z AUTO 28017G21KT 10SM CLR 27/M01 A3012 RMK AO2 SLP083 T02721011